Time;durP1;ratioP1;P1;durP2;ratioP2;P2;SDS_P1;SDS_P2;PMS_P1;PMS_P2;Temp;Humidity;BMP_temperature;BMP_pressure;BME280_temperature;BME280_humidity;BME280_pressure;Samples;Min_cycle;Max_cycle;Signal;HPM_P1;HPM_P2
2023/02/04 00:00:23;;;;;;;8.10;4.45;;;;;;;2.38;62.14;94755.44;5066324;28;20039;-77
2023/02/04 00:02:49;;;;;;;7.20;4.32;;;;;;;2.18;62.98;94741.50;5067219;28;20025;-77
2023/02/04 00:05:18;;;;;;;10.38;4.90;;;;;;;1.97;63.74;94742.25;5064347;28;20032;-77
2023/02/04 00:07:44;;;;;;;5.82;4.43;;;;;;;1.94;63.99;94732.16;5067083;28;20490;-78
2023/02/04 00:10:09;;;;;;;7.47;5.43;;;;;;;1.90;64.06;94726.00;5064359;28;20132;-78
2023/02/04 00:12:35;;;;;;;6.85;5.03;;;;;;;1.91;64.22;94719.41;5067101;28;20116;-79
2023/02/04 00:15:00;;;;;;;9.20;5.72;;;;;;;1.92;64.69;94729.09;5066146;28;20024;-79
2023/02/04 00:17:26;;;;;;;8.68;5.60;;;;;;;1.85;64.84;94724.44;5071998;28;20417;-78
2023/02/04 00:19:51;;;;;;;7.60;4.90;;;;;;;1.64;65.60;94718.97;5057133;28;20067;-77
2023/02/04 00:22:16;;;;;;;8.32;5.30;;;;;;;1.60;65.76;94716.25;5066540;28;20127;-77
2023/02/04 00:24:47;;;;;;;7.85;4.90;;;;;;;1.64;65.90;94718.19;5066913;28;20039;-77
2023/02/04 00:27:12;;;;;;;8.27;4.75;;;;;;;1.58;65.99;94717.81;5065370;28;20024;-79
2023/02/04 00:29:38;;;;;;;7.25;4.90;;;;;;;1.53;65.82;94704.63;5065352;28;20082;-78
2023/02/04 00:32:03;;;;;;;9.20;4.85;;;;;;;1.51;66.05;94715.84;5063885;28;20032;-78
2023/02/04 00:34:29;;;;;;;8.02;4.88;;;;;;;1.53;66.08;94713.53;5064868;28;20115;-76
2023/02/04 00:36:54;;;;;;;9.98;4.78;;;;;;;1.53;65.95;94716.25;5066121;28;20032;-77
2023/02/04 00:39:19;;;;;;;6.35;4.47;;;;;;;1.56;65.72;94717.44;5064161;28;20101;-80
2023/02/04 00:41:45;;;;;;;8.65;4.30;;;;;;;1.56;65.53;94707.34;5066122;28;20033;-78
2023/02/04 00:44:12;;;;;;;6.93;4.32;;;;;;;1.59;65.39;94711.22;5064789;28;20024;-77
2023/02/04 00:46:38;;;;;;;6.63;4.35;;;;;;;1.55;65.34;94696.91;5064786;28;20024;-78
2023/02/04 00:49:05;;;;;;;6.95;4.13;;;;;;;1.51;65.25;94693.41;5065272;28;20027;-78
2023/02/04 00:51:32;;;;;;;8.68;4.82;;;;;;;1.56;64.74;94688.41;5065941;28;20119;-77
2023/02/04 00:53:57;;;;;;;8.02;4.35;;;;;;;1.66;64.29;94700.38;5065375;28;20021;-79
2023/02/04 00:56:22;;;;;;;7.20;4.90;;;;;;;1.66;64.42;94694.19;5065307;28;20028;-78
2023/02/04 00:58:49;;;;;;;7.80;4.55;;;;;;;1.70;63.84;94687.63;5065264;28;20108;-77
2023/02/04 01:01:14;;;;;;;7.55;4.32;;;;;;;1.65;63.74;94688.00;5065347;28;20032;-79
2023/02/04 01:03:40;;;;;;;8.52;4.50;;;;;;;1.72;63.21;94679.09;5066066;28;20525;-77
2023/02/04 01:06:05;;;;;;;8.27;4.78;;;;;;;1.76;62.99;94671.75;5063063;28;20162;-77
2023/02/04 01:08:31;;;;;;;6.75;4.07;;;;;;;1.89;62.52;94674.84;5065764;28;20060;-78
2023/02/04 01:10:56;;;;;;;7.93;3.70;;;;;;;1.82;62.55;94654.72;5063287;28;20548;-78
2023/02/04 01:13:21;;;;;;;8.32;4.13;;;;;;;1.93;62.09;94665.56;5065266;28;20528;-77
2023/02/04 01:15:47;;;;;;;9.75;4.10;;;;;;;1.99;61.62;94658.59;5069146;28;20110;-79
2023/02/04 01:18:12;;;;;;;7.30;4.03;;;;;;;1.96;61.64;94653.19;5064864;28;20032;-78
2023/02/04 01:20:38;;;;;;;7.53;3.53;;;;;;;2.05;60.98;94643.47;5065777;28;20031;-78
2023/02/04 01:23:03;;;;;;;7.15;3.80;;;;;;;2.06;60.96;94636.13;5064475;28;20059;-79
2023/02/04 01:25:29;;;;;;;4.30;2.30;;;;;;;2.18;59.39;94638.44;5065854;28;20077;-77
2023/02/04 01:27:54;;;;;;;4.97;2.40;;;;;;;2.15;58.71;94622.94;5064280;28;20097;-77
2023/02/04 01:30:20;;;;;;;3.03;1.70;;;;;;;2.26;57.47;94629.13;5065117;28;20052;-77
2023/02/04 01:32:45;;;;;;;2.00;1.50;;;;;;;2.37;56.13;94619.03;5063388;28;20024;-78
2023/02/04 01:35:10;;;;;;;5.80;1.33;;;;;;;2.54;55.83;94619.38;5064356;28;20506;-78
2023/02/04 01:37:37;;;;;;;2.42;1.50;;;;;;;2.68;54.67;94616.59;5065062;28;20035;-77
2023/02/04 01:40:03;;;;;;;2.25;1.25;;;;;;;2.78;54.87;94615.00;5063647;28;20028;-76
2023/02/04 01:42:29;;;;;;;1.80;1.10;;;;;;;2.90;54.15;94611.84;5064035;28;20051;-76
2023/02/04 01:44:54;;;;;;;2.90;1.20;;;;;;;3.03;53.94;94607.50;5062071;28;20495;-77
2023/02/04 01:47:20;;;;;;;3.75;1.30;;;;;;;3.07;53.68;94612.94;5065107;28;20024;-77
2023/02/04 01:49:50;;;;;;;2.08;1.25;;;;;;;3.18;53.20;94600.84;5064155;28;20017;-78
2023/02/04 01:52:16;;;;;;;1.83;1.25;;;;;;;3.26;53.26;94600.78;5063159;28;20113;-78
2023/02/04 01:54:41;;;;;;;2.85;1.20;;;;;;;3.27;53.41;94596.91;5063647;28;20107;-78
2023/02/04 01:57:13;;;;;;;1.85;1.38;;;;;;;3.35;53.45;94590.25;5063644;28;20032;-78
2023/02/04 01:59:41;;;;;;;1.88;1.42;;;;;;;3.46;53.01;94590.97;5063730;28;20055;-78
2023/02/04 02:02:54;;;;;;;2.55;1.17;;;;;;;3.54;52.61;94584.28;5062861;28;20029;-76
2023/02/04 02:05:23;;;;;;;3.47;1.30;;;;;;;3.50;52.68;94580.84;5068773;28;20183;-78
2023/02/04 02:07:50;;;;;;;2.85;1.10;;;;;;;3.52;52.44;94572.28;5046941;28;20028;-79
2023/02/04 02:10:17;;;;;;;2.30;1.40;;;;;;;3.49;52.77;94579.28;5062649;28;20028;-77
2023/02/04 02:12:43;;;;;;;4.93;1.38;;;;;;;3.53;52.79;94571.88;5070431;28;20028;-77
2023/02/04 02:15:09;;;;;;;2.75;1.10;;;;;;;3.55;52.78;94566.81;5064226;28;20438;-78
2023/02/04 02:17:35;;;;;;;4.72;1.70;;;;;;;3.53;52.87;94566.44;5064048;28;20025;-77
2023/02/04 02:20:01;;;;;;;4.07;1.45;;;;;;;3.50;52.74;94556.38;5062764;28;20104;-78
2023/02/04 02:22:39;;;;;;;3.05;2.40;;;;;;;3.54;53.82;94562.53;5046680;28;20067;-78
2023/02/04 02:25:11;;;;;;;5.65;3.05;;;;;;;3.49;54.62;94554.81;5063127;28;20029;-78
2023/02/04 02:27:37;;;;;;;3.90;3.50;;;;;;;3.54;55.13;94550.91;5062429;28;20050;-79
2023/02/04 02:30:04;;;;;;;8.43;3.90;;;;;;;3.43;55.31;94538.16;5063146;28;20029;-79
2023/02/04 02:32:29;;;;;;;4.82;3.08;;;;;;;3.50;55.20;94525.69;5061881;28;20127;-78
2023/02/04 02:34:55;;;;;;;3.45;2.08;;;;;;;3.58;53.67;94522.53;5063857;28;20170;-76
2023/02/04 02:37:20;;;;;;;2.70;1.25;;;;;;;3.56;52.61;94508.56;5063771;28;20075;-78
2023/02/04 02:39:46;;;;;;;4.32;2.10;;;;;;;3.64;53.82;94523.63;5062869;28;20348;-77
2023/02/04 02:42:14;;;;;;;1.67;1.35;;;;;;;3.69;52.10;94504.19;5047628;28;20036;-79
2023/02/04 02:44:39;;;;;;;3.40;1.45;;;;;;;3.72;51.95;94502.59;5072801;28;20880;-76
2023/02/04 02:47:05;;;;;;;1.60;1.10;;;;;;;3.81;51.99;94505.63;5071447;28;20036;-78
2023/02/04 02:49:31;;;;;;;2.35;1.35;;;;;;;3.87;51.72;94501.28;5066154;28;20071;-78
2023/02/04 02:51:57;;;;;;;4.35;2.90;;;;;;;3.85;53.44;94495.50;5066745;28;20032;-79
2023/02/04 02:54:26;;;;;;;5.85;3.95;;;;;;;3.83;53.94;94494.34;5067240;28;20099;-78
2023/02/04 02:56:52;;;;;;;3.72;2.85;;;;;;;3.84;53.70;94482.28;5050157;28;20036;-78
2023/02/04 02:59:18;;;;;;;3.33;2.30;;;;;;;3.92;52.54;94481.03;5066002;28;20499;-78
2023/02/04 03:01:46;;;;;;;2.47;1.60;;;;;;;3.96;51.74;94490.72;5065928;28;20029;-77
2023/02/04 03:04:12;;;;;;;2.95;1.40;;;;;;;3.98;51.67;94479.41;5067700;28;20115;-79
2023/02/04 03:06:38;;;;;;;3.60;1.25;;;;;;;4.05;51.43;94479.34;5065524;28;20463;-78
2023/02/04 03:09:03;;;;;;;1.95;1.40;;;;;;;4.10;51.19;94480.84;5073392;28;20021;-79
2023/02/04 03:11:29;;;;;;;3.35;1.40;;;;;;;4.18;51.05;94490.44;5065833;28;20067;-80
2023/02/04 03:13:55;;;;;;;2.13;1.25;;;;;;;4.16;50.85;94488.16;5066970;28;20028;-80
2023/02/04 03:16:21;;;;;;;3.22;1.10;;;;;;;4.18;50.95;94482.28;5048694;28;20036;-79
2023/02/04 03:18:47;;;;;;;3.67;1.30;;;;;;;4.18;50.87;94485.00;5067653;28;20419;-76
2023/02/04 03:21:12;;;;;;;2.53;1.35;;;;;;;4.15;51.03;94472.22;5049584;28;20047;-79
2023/02/04 03:23:38;;;;;;;2.20;1.15;;;;;;;4.20;50.99;94469.84;5066602;28;20029;-77
2023/02/04 03:26:04;;;;;;;2.38;1.10;;;;;;;4.13;50.92;94472.66;5067476;28;20020;-77
2023/02/04 03:28:30;;;;;;;1.27;1.05;;;;;;;4.14;50.88;94473.41;5065218;28;20036;-78
2023/02/04 03:30:56;;;;;;;2.03;1.10;;;;;;;4.23;50.84;94479.13;5066580;28;20494;-78
2023/02/04 03:33:23;;;;;;;1.13;1.02;;;;;;;4.32;50.57;94475.94;5066620;28;20036;-77
2023/02/04 03:35:50;;;;;;;5.40;2.45;;;;;;;4.37;50.45;94478.97;5066355;28;20046;-77
2023/02/04 03:38:16;;;;;;;6.97;2.75;;;;;;;4.40;51.13;94475.41;5067148;28;20020;-79
2023/02/04 03:40:41;;;;;;;3.20;2.22;;;;;;;4.36;51.87;94474.72;5048213;28;20038;-79
2023/02/04 03:43:06;;;;;;;5.82;2.90;;;;;;;4.33;52.79;94469.31;5065713;28;20039;-78
2023/02/04 03:45:32;;;;;;;5.85;3.45;;;;;;;4.27;53.60;94466.25;5066695;28;20094;-79
2023/02/04 03:47:57;;;;;;;4.20;2.85;;;;;;;4.24;53.75;94461.63;5067150;28;20116;-77
2023/02/04 03:50:23;;;;;;;6.07;2.88;;;;;;;4.23;53.52;94466.28;5066327;28;20029;-79
2023/02/04 03:52:50;;;;;;;6.18;3.10;;;;;;;4.22;53.52;94458.53;5067323;28;20024;-78
2023/02/04 03:55:16;;;;;;;4.70;2.72;;;;;;;4.14;53.37;94440.78;5064817;28;20142;-79
2023/02/04 03:57:41;;;;;;;4.75;2.63;;;;;;;4.16;53.36;94450.06;5065030;28;20456;-79
2023/02/04 04:00:07;;;;;;;3.50;2.40;;;;;;;4.22;53.32;94448.44;5048836;28;20040;-77
2023/02/04 04:02:32;;;;;;;5.18;2.60;;;;;;;4.26;53.02;94446.44;5065921;28;20461;-76
2023/02/04 04:04:58;;;;;;;8.35;4.35;;;;;;;4.35;53.15;94439.72;5072569;28;20025;-77
2023/02/04 04:07:23;;;;;;;10.10;5.50;;;;;;;4.37;53.71;94431.94;5067961;28;20027;-77
2023/02/04 04:09:49;;;;;;;10.60;6.03;;;;;;;4.39;54.06;94430.34;5067937;28;20439;-79
2023/02/04 04:12:14;;;;;;;10.85;5.65;;;;;;;4.36;54.34;94427.66;5064606;28;20051;-78
2023/02/04 04:14:39;;;;;;;7.80;4.78;;;;;;;4.41;54.71;94421.75;5068529;28;20028;-79
2023/02/04 04:17:05;;;;;;;9.40;5.20;;;;;;;4.40;54.68;94422.94;5066957;28;20037;-79
2023/02/04 04:19:32;;;;;;;5.65;4.40;;;;;;;4.42;54.91;94415.91;5066768;28;20024;-76
2023/02/04 04:21:57;;;;;;;8.90;3.90;;;;;;;4.44;54.23;94413.56;5066945;28;20047;-78
2023/02/04 04:24:22;;;;;;;4.38;2.67;;;;;;;4.44;53.93;94415.50;5065548;28;20024;-78
2023/02/04 04:26:48;;;;;;;4.50;3.33;;;;;;;4.44;53.82;94421.72;5067180;28;20036;-77
2023/02/04 04:29:13;;;;;;;6.03;3.53;;;;;;;4.50;54.61;94439.13;5063963;28;20399;-78
2023/02/04 04:31:39;;;;;;;6.78;3.83;;;;;;;4.38;55.17;94426.06;5067012;28;20059;-78
2023/02/04 04:34:04;;;;;;;6.78;4.25;;;;;;;4.30;55.84;94435.53;5065968;28;20403;-78
2023/02/04 04:36:29;;;;;;;7.50;4.20;;;;;;;4.02;56.67;94439.34;5064604;28;20028;-78
2023/02/04 04:38:55;;;;;;;7.82;4.22;;;;;;;3.93;57.04;94437.13;5064923;28;20024;-77
2023/02/04 04:41:20;;;;;;;7.82;4.35;;;;;;;3.85;57.61;94432.19;5063828;28;20353;-77
2023/02/04 04:43:46;;;;;;;11.15;5.88;;;;;;;3.75;57.83;94428.38;5066267;28;20028;-78
2023/02/04 04:46:11;;;;;;;17.05;7.70;;;;;;;3.72;58.11;94440.81;5064607;28;20045;-77
2023/02/04 04:48:37;;;;;;;17.27;7.80;;;;;;;3.67;57.71;94438.56;5065266;28;20035;-77
2023/02/04 04:51:02;;;;;;;6.63;3.20;;;;;;;3.61;56.80;94453.78;5065257;28;20043;-78
2023/02/04 04:53:27;;;;;;;4.22;1.27;;;;;;;3.45;57.11;94429.84;5066039;28;20111;-78
2023/02/04 04:55:53;;;;;;;1.15;0.80;;;;;;;3.45;57.42;94439.97;5065627;28;20025;-78
2023/02/04 04:58:18;;;;;;;4.00;1.05;;;;;;;3.64;57.72;94450.25;5065189;28;20021;-78
2023/02/04 05:00:44;;;;;;;2.05;1.20;;;;;;;3.66;58.63;94449.84;5068840;28;20035;-78
2023/02/04 05:03:09;;;;;;;2.03;0.80;;;;;;;3.53;59.67;94443.38;5068129;28;20485;-78
2023/02/04 05:05:38;;;;;;;1.20;0.80;;;;;;;3.55;60.24;94443.72;5065674;28;20043;-77
2023/02/04 05:08:05;;;;;;;1.23;0.98;;;;;;;3.57;61.02;94430.53;5063401;28;20032;-77
2023/02/04 05:10:32;;;;;;;2.70;1.33;;;;;;;3.54;61.25;94453.06;5066879;28;20493;-79
2023/02/04 05:12:58;;;;;;;1.70;1.20;;;;;;;3.55;61.52;94452.66;5066794;28;20115;-80
2023/02/04 05:15:23;;;;;;;1.67;1.00;;;;;;;3.60;60.63;94465.81;5047847;28;20055;-78
2023/02/04 05:17:49;;;;;;;2.72;1.17;;;;;;;3.54;60.51;94483.72;5065987;28;20035;-77
2023/02/04 05:20:14;;;;;;;3.42;1.30;;;;;;;3.53;60.87;94481.41;5065318;28;20103;-78
2023/02/04 05:22:39;;;;;;;2.33;1.30;;;;;;;3.45;61.21;94469.84;5048083;28;20491;-78
2023/02/04 05:25:05;;;;;;;2.10;1.40;;;;;;;3.34;61.87;94477.31;5064553;28;20031;-79
2023/02/04 05:27:30;;;;;;;3.50;1.58;;;;;;;3.27;62.03;94490.94;5047927;28;20032;-77
2023/02/04 05:29:56;;;;;;;2.20;1.00;;;;;;;3.16;61.23;94499.19;5063626;28;20475;-78
2023/02/04 05:32:21;;;;;;;2.20;1.17;;;;;;;3.16;62.07;94521.69;5065456;28;20028;-79
2023/02/04 05:34:47;;;;;;;3.03;1.70;;;;;;;3.15;62.56;94524.78;5065109;28;20074;-80
2023/02/04 05:37:14;;;;;;;2.90;1.55;;;;;;;3.17;62.50;94512.38;5064555;28;20356;-78
2023/02/04 05:39:39;;;;;;;3.05;1.50;;;;;;;3.23;62.27;94514.66;5065771;28;20096;-78
2023/02/04 05:42:05;;;;;;;3.28;1.65;;;;;;;3.19;62.22;94507.31;5064141;28;20123;-78
2023/02/04 05:44:30;;;;;;;5.65;2.00;;;;;;;3.06;62.34;94510.91;5065303;28;20081;-78
2023/02/04 05:46:55;;;;;;;3.03;1.73;;;;;;;2.88;61.48;94500.16;5064639;28;20028;-79
2023/02/04 05:49:22;;;;;;;2.95;1.60;;;;;;;2.90;61.32;94495.09;5064492;28;20043;-78
2023/02/04 05:51:48;;;;;;;3.25;1.63;;;;;;;2.91;61.04;94496.63;5065086;28;20032;-79
2023/02/04 05:54:18;;;;;;;2.85;1.60;;;;;;;2.89;60.99;94482.69;5064769;28;20024;-78
2023/02/04 05:56:44;;;;;;;2.90;1.55;;;;;;;2.83;61.01;94468.78;5067055;28;20021;-77
2023/02/04 05:59:09;;;;;;;2.78;1.60;;;;;;;2.85;61.29;94463.72;5069050;28;20026;-79
2023/02/04 06:01:35;;;;;;;2.92;1.38;;;;;;;2.83;61.06;94473.44;5065742;28;20032;-78
2023/02/04 06:04:00;;;;;;;3.80;2.00;;;;;;;2.86;60.71;94480.75;5062808;28;20032;-78
2023/02/04 06:06:26;;;;;;;4.85;1.70;;;;;;;2.87;60.72;94477.69;5063847;28;20028;-78
2023/02/04 06:08:51;;;;;;;2.85;1.67;;;;;;;2.90;60.18;94482.28;5064596;28;20028;-78
2023/02/04 06:11:16;;;;;;;2.33;1.45;;;;;;;2.87;60.14;94483.09;5064824;28;20455;-77
2023/02/04 06:13:42;;;;;;;2.28;1.45;;;;;;;2.87;60.31;94490.47;5065605;28;20423;-78
2023/02/04 06:16:07;;;;;;;3.47;1.40;;;;;;;2.93;60.23;94502.47;5065770;28;20025;-75
2023/02/04 06:18:32;;;;;;;4.45;1.38;;;;;;;3.01;60.15;94503.19;5069029;28;20069;-76
2023/02/04 06:20:58;;;;;;;3.92;1.60;;;;;;;3.09;59.85;94512.81;5066176;28;20052;-78
2023/02/04 06:23:23;;;;;;;2.35;1.38;;;;;;;3.16;59.70;94504.63;5067616;28;20025;-78
2023/02/04 06:25:49;;;;;;;2.70;1.40;;;;;;;3.19;59.30;94501.09;5067165;28;20094;-78
2023/02/04 06:28:14;;;;;;;2.22;1.25;;;;;;;3.22;59.15;94497.59;5069159;28;20401;-77
2023/02/04 06:30:40;;;;;;;3.38;1.60;;;;;;;3.31;58.82;94500.63;5066831;28;20490;-77
2023/02/04 06:33:05;;;;;;;2.28;1.38;;;;;;;3.42;58.55;94516.84;5068166;28;20067;-77
2023/02/04 06:35:31;;;;;;;3.97;1.90;;;;;;;3.51;57.83;94513.69;5067910;28;20090;-79
2023/02/04 06:37:57;;;;;;;3.63;1.67;;;;;;;3.54;57.89;94513.63;5066603;28;20025;-79
2023/02/04 06:40:22;;;;;;;1.60;1.27;;;;;;;3.57;57.51;94525.66;5067663;28;20115;-79
2023/02/04 06:42:47;;;;;;;3.95;1.75;;;;;;;3.59;57.13;94520.59;5067504;28;20039;-78
2023/02/04 06:45:13;;;;;;;2.22;1.23;;;;;;;3.59;57.10;94517.88;5068121;28;20112;-78
2023/02/04 06:47:38;;;;;;;3.65;1.50;;;;;;;3.61;56.41;94519.03;5067694;28;20097;-80
2023/02/04 06:50:04;;;;;;;3.03;1.30;;;;;;;3.67;56.14;94519.34;5067027;28;20033;-76
2023/02/04 06:52:29;;;;;;;2.35;1.30;;;;;;;3.71;56.08;94529.00;5066833;28;20039;-78
2023/02/04 06:54:55;;;;;;;2.88;1.20;;;;;;;3.73;55.64;94525.91;5072475;28;20082;-77
2023/02/04 06:57:20;;;;;;;1.88;1.13;;;;;;;3.82;55.62;94528.13;5068567;28;20032;-78
2023/02/04 06:59:46;;;;;;;1.80;1.30;;;;;;;3.87;55.60;94517.59;5067630;28;20155;-77
2023/02/04 07:02:11;;;;;;;2.45;1.30;;;;;;;3.97;55.37;94521.41;5068389;28;20086;-79
2023/02/04 07:04:37;;;;;;;4.13;2.10;;;;;;;4.10;55.48;94508.81;5067447;28;20024;-76
2023/02/04 07:07:02;;;;;;;3.22;1.48;;;;;;;4.11;54.92;94504.16;5068018;28;20025;-82
2023/02/04 07:09:28;;;;;;;4.18;1.70;;;;;;;4.20;54.76;94513.38;5068069;28;20024;-80
2023/02/04 07:11:53;;;;;;;2.58;1.42;;;;;;;4.38;54.01;94512.41;5069118;28;20117;-79
2023/02/04 07:14:19;;;;;;;4.38;1.90;;;;;;;4.47;53.88;94509.94;5069003;28;20016;-77
2023/02/04 07:16:44;;;;;;;2.10;1.40;;;;;;;4.58;53.42;94509.81;5069048;28;20029;-78
2023/02/04 07:19:10;;;;;;;3.30;1.50;;;;;;;4.77;53.00;94501.78;5050354;28;20029;-77
2023/02/04 07:21:35;;;;;;;3.03;1.40;;;;;;;4.87;53.21;94500.06;5066927;28;20503;-77
2023/02/04 07:24:01;;;;;;;3.85;1.77;;;;;;;5.03;52.36;94497.50;5066910;28;20035;-77
2023/02/04 07:26:26;;;;;;;3.90;2.13;;;;;;;5.18;52.15;94492.63;5066951;28;20609;-79
2023/02/04 07:28:51;;;;;;;2.72;1.60;;;;;;;5.31;51.73;94471.03;5049923;28;20020;-78
2023/02/04 07:31:17;;;;;;;4.53;2.05;;;;;;;5.39;51.21;94477.91;5049888;28;20028;-79
2023/02/04 07:33:42;;;;;;;3.65;1.90;;;;;;;5.58;50.97;94482.66;5066375;28;20020;-79
2023/02/04 07:36:08;;;;;;;6.20;2.35;;;;;;;5.82;50.34;94488.84;5066485;28;20052;-78
2023/02/04 07:38:33;;;;;;;4.13;1.80;;;;;;;5.99;49.60;94491.72;5074779;28;20044;-78
2023/02/04 07:40:58;;;;;;;6.15;2.40;;;;;;;6.08;50.11;94489.97;5068401;28;20027;-79
2023/02/04 07:43:24;;;;;;;6.47;2.38;;;;;;;6.11;49.39;94480.94;5067077;28;20021;-78
2023/02/04 07:45:49;;;;;;;2.92;1.67;;;;;;;6.11;49.20;94478.22;5049695;28;20568;-78
2023/02/04 07:48:15;;;;;;;3.42;1.65;;;;;;;6.11;49.48;94480.94;5067052;28;21015;-78
2023/02/04 07:50:40;;;;;;;4.55;1.70;;;;;;;6.22;49.02;94480.75;5074791;28;20527;-79
2023/02/04 07:53:06;;;;;;;2.33;1.50;;;;;;;6.26;48.95;94486.91;5067832;28;20056;-80
2023/02/04 07:55:31;;;;;;;6.80;2.53;;;;;;;6.06;49.09;94484.16;5065548;28;20031;-79
2023/02/04 07:57:57;;;;;;;3.42;1.75;;;;;;;5.86;49.66;94481.38;5066120;28;20041;-79
2023/02/04 08:00:23;;;;;;;5.07;1.88;;;;;;;5.82;49.81;94486.13;5048173;28;20039;-78
2023/02/04 08:02:48;;;;;;;3.15;1.85;;;;;;;5.80;50.05;94479.56;5067429;28;20077;-79
2023/02/04 08:05:14;;;;;;;8.45;4.22;;;;;;;5.84;50.06;94472.81;5064889;28;20017;-80
2023/02/04 08:07:39;;;;;;;3.92;2.08;;;;;;;5.78;50.42;94481.91;5065698;28;20029;-78
2023/02/04 08:10:05;;;;;;;3.35;1.90;;;;;;;5.76;50.35;94481.56;5066448;28;20466;-80
2023/02/04 08:12:31;;;;;;;4.07;2.10;;;;;;;5.71;50.55;94484.78;5066429;28;20182;-79
2023/02/04 08:14:56;;;;;;;2.47;1.30;;;;;;;5.60;50.26;94488.44;5065441;28;20499;-79
2023/02/04 08:17:22;;;;;;;2.53;1.85;;;;;;;5.57;50.83;94488.53;5064268;28;20047;-78
2023/02/04 08:19:47;;;;;;;2.72;1.23;;;;;;;5.41;50.94;94489.16;5066839;28;20055;-77
2023/02/04 08:22:12;;;;;;;2.15;1.35;;;;;;;5.28;51.49;94478.09;5065367;28;20033;-77
2023/02/04 08:24:38;;;;;;;4.10;1.50;;;;;;;5.22;52.12;94489.88;5065148;28;20473;-77
2023/02/04 08:27:03;;;;;;;2.53;1.50;;;;;;;5.19;52.16;94488.72;5065767;28;20483;-77
2023/02/04 08:29:29;;;;;;;2.47;1.30;;;;;;;5.17;52.65;94479.44;5066086;28;20361;-76
2023/02/04 08:31:54;;;;;;;2.58;1.30;;;;;;;5.15;52.93;94487.22;5064585;28;20033;-77
2023/02/04 08:34:20;;;;;;;2.30;1.17;;;;;;;5.09;53.19;94469.81;5064513;28;20035;-79
2023/02/04 08:36:45;;;;;;;4.22;1.50;;;;;;;5.03;53.43;94475.72;5065489;28;20024;-78
2023/02/04 08:39:11;;;;;;;2.75;1.42;;;;;;;5.06;53.66;94487.75;5064607;28;20032;-78
2023/02/04 08:41:37;;;;;;;2.58;1.83;;;;;;;5.04;53.97;94476.50;5066391;28;20447;-77
2023/02/04 08:44:02;;;;;;;3.08;1.50;;;;;;;4.95;53.13;94470.81;5064012;28;20792;-77
2023/02/04 08:46:28;;;;;;;2.88;1.50;;;;;;;4.85;53.32;94469.75;5069751;28;20042;-77
2023/02/04 08:48:54;;;;;;;6.53;2.05;;;;;;;4.80;54.07;94478.41;5066730;28;20102;-78
2023/02/04 08:51:19;;;;;;;3.35;1.88;;;;;;;4.75;54.80;94471.44;5064480;28;20024;-77
2023/02/04 08:53:45;;;;;;;7.07;2.60;;;;;;;4.66;55.48;94478.59;5064484;28;20103;-78
2023/02/04 08:56:15;;;;;;;3.88;1.60;;;;;;;4.71;55.54;94476.19;5065000;28;20059;-77
2023/02/04 08:58:43;;;;;;;2.35;1.42;;;;;;;4.70;55.58;94477.38;5065069;28;20029;-77
2023/02/04 09:01:10;;;;;;;3.30;1.77;;;;;;;4.72;55.45;94475.00;5063660;28;20432;-77
2023/02/04 09:03:36;;;;;;;2.90;1.65;;;;;;;4.70;55.75;94476.59;5065573;28;20039;-78
2023/02/04 09:06:02;;;;;;;2.58;1.58;;;;;;;4.68;55.63;94473.50;5064741;28;20020;-78
2023/02/04 09:08:27;;;;;;;4.05;2.03;;;;;;;4.77;56.08;94465.63;5063603;28;20036;-78
2023/02/04 09:10:52;;;;;;;4.50;2.15;;;;;;;4.84;56.08;94464.75;5065563;28;20092;-77
2023/02/04 09:13:18;;;;;;;4.47;1.70;;;;;;;4.77;55.21;94462.88;5062929;28;20595;-77
2023/02/04 09:15:43;;;;;;;3.35;2.20;;;;;;;4.83;55.20;94463.19;5065287;28;20125;-76
2023/02/04 09:18:20;;;;;;;4.32;1.55;;;;;;;4.78;54.26;94448.09;5062787;28;20028;-79
2023/02/04 09:20:47;;;;;;;2.10;1.40;;;;;;;4.78;53.41;94457.03;5065218;28;20032;-77
2023/02/04 09:23:12;;;;;;;1.92;1.40;;;;;;;4.78;53.18;94457.03;5062943;28;20094;-78
2023/02/04 09:25:38;;;;;;;2.08;1.45;;;;;;;4.72;53.09;94457.91;5065270;28;20028;-79
2023/02/04 09:28:04;;;;;;;3.33;1.70;;;;;;;4.74;53.40;94456.28;5047001;28;20024;-78
2023/02/04 09:30:30;;;;;;;2.58;1.35;;;;;;;4.59;54.54;94456.91;5062968;28;20390;-77
2023/02/04 09:32:55;;;;;;;6.13;1.90;;;;;;;4.49;55.83;94456.66;5064090;28;20050;-78
2023/02/04 09:35:21;;;;;;;4.43;1.80;;;;;;;4.58;56.50;94461.56;5062896;28;20029;-78
2023/02/04 09:37:46;;;;;;;3.53;1.85;;;;;;;4.69;56.56;94464.16;5065112;28;20629;-77
2023/02/04 09:40:16;;;;;;;5.07;1.95;;;;;;;4.63;57.37;94450.22;5063686;28;20104;-78
2023/02/04 09:42:43;;;;;;;2.22;1.60;;;;;;;4.65;57.51;94447.88;5050619;28;20024;-78
2023/02/04 09:45:16;;;;;;;2.38;1.40;;;;;;;4.63;57.74;94442.06;5064949;28;20111;-77
2023/02/04 09:47:41;;;;;;;5.25;2.53;;;;;;;4.74;57.91;94452.81;5065208;28;20451;-76
2023/02/04 09:50:19;;;;;;;2.25;1.60;;;;;;;4.74;57.36;94444.63;5065107;28;20029;-76
2023/02/04 09:52:46;;;;;;;3.67;1.75;;;;;;;4.79;58.09;94446.91;5062930;28;20052;-78
2023/02/04 09:55:16;;;;;;;3.50;2.00;;;;;;;4.78;58.14;94440.69;5063877;28;20081;-78
2023/02/04 09:57:41;;;;;;;2.75;1.80;;;;;;;4.67;58.32;94445.50;5064559;28;20056;-79
2023/02/04 10:00:21;;;;;;;2.95;1.83;;;;;;;4.75;58.48;94435.28;5063786;28;20066;-78
2023/02/04 10:02:46;;;;;;;5.20;1.70;;;;;;;4.71;58.54;94438.06;5064584;28;20063;-77
2023/02/04 10:05:14;;;;;;;3.33;1.48;;;;;;;4.58;58.99;94436.31;5064622;28;20029;-79
2023/02/04 10:07:39;;;;;;;4.90;2.10;;;;;;;4.65;59.69;94426.09;5063698;28;20487;-78
2023/02/04 10:10:05;;;;;;;3.88;1.65;;;;;;;4.72;59.02;94430.66;5062831;28;20031;-79
2023/02/04 10:12:31;;;;;;;3.40;1.60;;;;;;;4.78;58.75;94423.56;5063487;28;20032;-77
2023/02/04 10:14:59;;;;;;;1.80;1.40;;;;;;;4.69;57.88;94402.28;5063133;28;20048;-78
2023/02/04 10:17:24;;;;;;;4.07;2.08;;;;;;;4.76;58.44;94421.28;5063372;28;20108;-78
2023/02/04 10:19:49;;;;;;;4.88;1.88;;;;;;;4.77;58.52;94416.59;5064687;28;20077;-78
2023/02/04 10:22:17;;;;;;;3.38;1.75;;;;;;;4.75;58.46;94413.50;5064473;28;20757;-80
2023/02/04 10:24:44;;;;;;;1.77;1.25;;;;;;;4.72;58.96;94406.16;5066425;28;20052;-79
2023/02/04 10:27:11;;;;;;;1.40;1.10;;;;;;;4.75;58.35;94399.88;5063261;28;20052;-78
2023/02/04 10:29:36;;;;;;;2.38;1.50;;;;;;;4.78;59.07;94407.25;5064695;28;20028;-78
2023/02/04 10:32:02;;;;;;;2.58;1.30;;;;;;;4.86;59.23;94405.94;5062606;28;20553;-77
2023/02/04 10:34:33;;;;;;;3.40;1.63;;;;;;;4.83;59.58;94406.78;5064238;28;20028;-77
2023/02/04 10:37:00;;;;;;;2.83;1.88;;;;;;;4.79;60.35;94398.66;5064152;28;20017;-77
2023/02/04 10:39:29;;;;;;;2.15;1.33;;;;;;;4.74;60.80;94406.50;5067008;28;20025;-77
2023/02/04 10:41:59;;;;;;;4.13;1.42;;;;;;;4.63;61.84;94409.38;5067270;28;20493;-77
2023/02/04 10:44:30;;;;;;;3.47;1.70;;;;;;;4.55;62.04;94397.06;5062956;28;20041;-77
2023/02/04 10:47:04;;;;;;;3.13;1.60;;;;;;;4.49;62.80;94404.16;5064481;28;20013;-77
2023/02/04 10:49:30;;;;;;;2.95;1.45;;;;;;;4.51;62.93;94399.06;5062683;28;20029;-78
2023/02/04 10:51:55;;;;;;;3.58;1.65;;;;;;;4.50;62.76;94397.53;5063226;28;20035;-77
2023/02/04 10:54:30;;;;;;;4.30;2.15;;;;;;;4.54;62.39;94392.81;5063070;28;20025;-78
2023/02/04 10:57:17;;;;;;;5.07;2.22;;;;;;;4.55;62.58;94391.63;5062340;28;20028;-77
2023/02/04 10:59:43;;;;;;;4.38;2.65;;;;;;;4.60;62.55;94390.41;5064888;28;20071;-79
2023/02/04 11:02:36;;;;;;;2.60;1.58;;;;;;;4.61;62.15;94394.66;5062450;28;20467;-78
2023/02/04 11:05:02;;;;;;;3.00;1.98;;;;;;;4.72;62.52;94387.09;5066310;28;20033;-79
2023/02/04 11:07:29;;;;;;;2.70;1.48;;;;;;;4.79;62.25;94379.59;5066182;28;20029;-77
2023/02/04 11:09:55;;;;;;;2.83;1.60;;;;;;;4.79;61.63;94385.03;5066035;28;20131;-77
2023/02/04 11:12:43;;;;;;;2.72;1.50;;;;;;;4.84;61.46;94383.81;5066369;28;20021;-78
2023/02/04 11:15:47;;;;;;;1.83;1.25;;;;;;;4.86;61.23;94370.53;5068283;28;20041;-77
2023/02/04 11:18:26;;;;;;;2.13;1.45;;;;;;;4.94;61.08;94371.22;5066380;28;20051;-78
2023/02/04 11:21:00;;;;;;;4.22;2.10;;;;;;;4.98;61.81;94364.50;5066294;28;20169;-77
2023/02/04 11:23:26;;;;;;;3.60;2.47;;;;;;;4.96;61.52;94371.56;5065303;28;20036;-78
2023/02/04 11:26:36;;;;;;;3.83;2.33;;;;;;;5.05;61.41;94375.28;5067742;28;20085;-78
2023/02/04 11:29:05;;;;;;;3.05;1.70;;;;;;;5.05;60.84;94375.28;5066033;28;20045;-77
2023/02/04 11:31:33;;;;;;;3.25;2.10;;;;;;;5.09;61.44;94382.63;5066454;28;20032;-78
2023/02/04 11:34:09;;;;;;;2.60;2.03;;;;;;;5.02;60.69;94367.94;5067320;28;20475;-78
2023/02/04 11:36:58;;;;;;;3.10;1.90;;;;;;;4.92;61.03;94363.44;5070492;28;20716;-78
2023/02/04 11:39:43;;;;;;;3.40;2.00;;;;;;;4.81;61.28;94368.28;5067649;28;20037;-79